createdAt,value
2023-05-05T00:01:55.489Z,42.99
2023-05-05T00:04:22.255Z,43.18
2023-05-05T00:06:48.964Z,43.12
2023-05-05T00:09:15.496Z,43.24
2023-05-05T00:11:42.089Z,43.08
2023-05-05T00:14:08.598Z,43.02
2023-05-05T00:16:35.127Z,42.90
2023-05-05T00:19:01.686Z,43.02
2023-05-05T00:21:28.304Z,42.91
2023-05-05T00:23:54.838Z,43.33
2023-05-05T00:26:21.274Z,43.28
2023-05-05T00:28:47.803Z,43.12
2023-05-05T00:31:14.309Z,43.34
2023-05-05T00:33:40.872Z,43.09
2023-05-05T00:36:07.363Z,43.26
2023-05-05T00:38:33.886Z,42.99
2023-05-05T00:41:00.424Z,43.13
2023-05-05T00:43:27.014Z,43.14
2023-05-05T00:45:53.511Z,43.01
2023-05-05T00:48:19.935Z,43.08
2023-05-05T00:50:46.480Z,43.05
2023-05-05T00:53:13.082Z,43.04
2023-05-05T00:55:39.592Z,43.04
2023-05-05T00:58:06.130Z,43.37
2023-05-05T01:00:32.700Z,42.96
2023-05-05T01:02:59.300Z,42.92
2023-05-05T01:05:25.916Z,42.79
2023-05-05T01:07:52.472Z,43.20
2023-05-05T01:10:20.571Z,42.91
2023-05-05T01:12:47.462Z,42.95
2023-05-05T01:15:14.076Z,43.11
2023-05-05T01:17:40.675Z,42.92
2023-05-05T01:20:07.475Z,42.97
2023-05-05T01:22:34.131Z,43.17
2023-05-05T01:25:00.665Z,42.75
2023-05-05T01:27:27.146Z,43.07
2023-05-05T01:29:53.623Z,42.88
2023-05-05T01:32:20.160Z,42.62
2023-05-05T01:34:46.677Z,42.74
2023-05-05T01:37:13.238Z,43.04
2023-05-05T01:39:39.777Z,42.87
2023-05-05T01:42:06.355Z,42.91
2023-05-05T01:44:32.848Z,42.88
2023-05-05T01:46:59.379Z,43.04
2023-05-05T01:49:26.010Z,43.01
2023-05-05T01:51:52.472Z,43.01
2023-05-05T01:54:19.017Z,42.72
2023-05-05T01:56:45.669Z,42.88
2023-05-05T01:59:12.196Z,42.85
2023-05-05T02:01:38.891Z,42.89
2023-05-05T02:04:05.448Z,42.86
2023-05-05T02:06:32.027Z,42.70
2023-05-05T02:08:58.579Z,43.27
2023-05-05T02:11:25.136Z,42.92
2023-05-05T02:13:51.641Z,42.71
2023-05-05T02:16:18.270Z,42.94
2023-05-05T02:18:44.844Z,42.72
2023-05-05T02:21:11.357Z,42.94
2023-05-05T02:23:37.817Z,43.00
2023-05-05T02:26:04.400Z,42.74
2023-05-05T02:28:30.956Z,42.99
2023-05-05T02:30:57.643Z,42.67
2023-05-05T02:33:24.162Z,42.92
2023-05-05T02:35:50.718Z,42.75
2023-05-05T02:38:20.253Z,42.72
2023-05-05T02:40:46.718Z,42.64
2023-05-05T02:43:13.259Z,42.88
2023-05-05T02:45:42.489Z,42.87
2023-05-05T02:48:08.988Z,42.96
2023-05-05T02:50:35.517Z,42.91
2023-05-05T02:53:02.018Z,42.75
2023-05-05T02:55:28.499Z,42.90
2023-05-05T02:57:57.401Z,42.77
2023-05-05T03:00:23.848Z,42.63
2023-05-05T03:02:50.509Z,42.78
2023-05-05T03:05:17.054Z,42.63
2023-05-05T03:07:43.611Z,42.54
2023-05-05T03:10:10.343Z,42.56
2023-05-05T03:12:37.058Z,42.94
2023-05-05T03:15:03.687Z,42.74
2023-05-05T03:17:30.204Z,42.56
2023-05-05T03:19:56.677Z,42.56
2023-05-05T03:22:23.205Z,42.78
2023-05-05T03:24:49.675Z,42.58
2023-05-05T03:27:16.290Z,42.58
2023-05-05T03:29:42.894Z,42.80
2023-05-05T03:32:09.591Z,42.73
2023-05-05T03:34:36.165Z,42.59
2023-05-05T03:37:02.720Z,42.49
2023-05-05T03:39:29.130Z,42.71
2023-05-05T03:41:55.636Z,42.74
2023-05-05T03:44:22.207Z,42.53
2023-05-05T03:46:48.733Z,42.64
2023-05-05T03:49:15.157Z,42.54
2023-05-05T03:51:41.643Z,42.63
2023-05-05T03:54:08.153Z,42.43
2023-05-05T03:56:34.658Z,42.62
2023-05-05T03:59:01.122Z,42.46
2023-05-05T04:01:27.531Z,42.57
2023-05-05T04:03:54.094Z,42.45
2023-05-05T04:06:20.669Z,42.31
2023-05-05T04:08:47.252Z,42.47
2023-05-05T04:11:13.747Z,42.73
2023-05-05T04:13:40.356Z,42.48
2023-05-05T04:16:06.902Z,42.43
2023-05-05T04:18:33.446Z,42.78
2023-05-05T04:20:59.952Z,42.49
2023-05-05T04:23:26.484Z,42.46
2023-05-05T04:25:53.033Z,42.26
2023-05-05T04:28:21.636Z,42.20
2023-05-05T04:30:48.700Z,42.52
2023-05-05T04:33:15.254Z,42.21
2023-05-05T04:35:41.761Z,42.13
2023-05-05T04:38:08.167Z,42.30
2023-05-05T04:40:34.707Z,42.29
2023-05-05T04:43:01.159Z,42.07
2023-05-05T04:45:27.717Z,42.27
2023-05-05T04:47:54.217Z,42.13
2023-05-05T04:50:20.837Z,42.46
2023-05-05T04:52:47.390Z,42.81
2023-05-05T04:55:13.890Z,42.63
2023-05-05T04:57:40.370Z,42.71
2023-05-05T05:00:07.096Z,42.74
2023-05-05T05:02:34.034Z,42.61
2023-05-05T05:05:00.682Z,42.36
2023-05-05T05:07:27.298Z,42.62
2023-05-05T05:09:53.859Z,43.11
2023-05-05T05:12:20.344Z,42.94
2023-05-05T05:14:46.827Z,42.69
2023-05-05T05:17:13.294Z,42.71
2023-05-05T05:19:39.726Z,42.74
2023-05-05T05:22:06.173Z,42.77
2023-05-05T05:24:32.644Z,42.91
2023-05-05T05:27:02.213Z,42.67
2023-05-05T05:29:28.720Z,42.62
2023-05-05T05:31:55.253Z,42.66
2023-05-05T05:34:21.932Z,42.63
2023-05-05T05:36:48.470Z,42.76
2023-05-05T05:39:14.996Z,42.78
2023-05-05T05:41:41.478Z,42.64
2023-05-05T05:44:08.072Z,42.42
2023-05-05T05:46:34.557Z,42.71
2023-05-05T05:49:04.065Z,42.69
2023-05-05T05:51:30.555Z,42.83
2023-05-05T05:53:58.716Z,42.75
2023-05-05T05:56:25.534Z,43.01
2023-05-05T07:24:06.674Z,43.19
2023-05-05T07:26:35.954Z,42.72
2023-05-05T07:29:02.481Z,42.73
2023-05-05T07:31:29.158Z,42.89
2023-05-05T07:33:58.549Z,42.98
2023-05-05T07:36:24.999Z,43.54
2023-05-05T07:38:51.604Z,44.32
2023-05-05T07:41:18.156Z,43.68
2023-05-05T07:43:44.816Z,44.24
2023-05-05T07:46:11.487Z,44.80
2023-05-05T07:48:38.128Z,44.82
2023-05-05T07:51:04.555Z,44.75
2023-05-05T07:53:31.079Z,44.73
2023-05-05T07:55:57.715Z,44.79
2023-05-05T07:58:24.181Z,44.84
2023-05-05T08:00:50.717Z,44.70
2023-05-05T08:03:17.279Z,44.56
2023-05-05T08:05:43.854Z,44.61
2023-05-05T08:08:10.362Z,44.74
2023-05-05T08:10:36.954Z,44.68
2023-05-05T08:13:03.455Z,44.45
2023-05-05T08:15:32.792Z,44.24
2023-05-05T08:17:59.337Z,44.49
2023-05-05T08:20:25.764Z,44.46
2023-05-05T08:22:52.267Z,44.15
2023-05-05T08:25:18.771Z,44.30
2023-05-05T08:27:45.298Z,44.04
2023-05-05T08:30:11.859Z,43.98
2023-05-05T08:32:38.466Z,44.11
2023-05-05T08:35:05.194Z,43.96
2023-05-05T08:37:31.734Z,43.92
2023-05-05T08:39:58.236Z,44.31
2023-05-05T08:42:36.229Z,44.20
2023-05-05T08:45:04.034Z,43.98
2023-05-05T08:47:30.496Z,43.98
2023-05-05T08:49:57.204Z,43.81
2023-05-05T08:52:23.715Z,43.91
2023-05-05T08:54:50.330Z,43.90
2023-05-05T08:57:16.795Z,44.34
2023-05-05T08:59:43.272Z,43.71
2023-05-05T09:02:09.907Z,43.99
2023-05-05T09:04:36.439Z,43.83
2023-05-05T09:07:02.862Z,43.81
2023-05-05T09:09:29.369Z,43.97
2023-05-05T09:11:55.994Z,43.68
2023-05-05T09:14:22.474Z,43.65
2023-05-05T09:16:48.995Z,43.54
2023-05-05T09:19:15.443Z,43.46
2023-05-05T09:21:41.984Z,43.70
2023-05-05T09:24:09.316Z,43.44
2023-05-05T09:26:36.064Z,43.42
2023-05-05T09:29:02.697Z,43.62
2023-05-05T09:31:29.272Z,43.62
2023-05-05T09:33:55.776Z,43.57
2023-05-05T09:36:22.312Z,43.38
2023-05-05T09:38:48.776Z,43.53
2023-05-05T09:41:15.272Z,43.32
2023-05-05T09:43:42.007Z,43.28
2023-05-05T09:46:08.552Z,43.21
2023-05-05T09:48:35.174Z,42.99
2023-05-05T09:51:01.718Z,43.26
2023-05-05T09:53:28.281Z,42.98
2023-05-05T09:55:54.730Z,43.02
2023-05-05T09:58:21.308Z,43.01
2023-05-05T10:00:47.902Z,43.21
2023-05-05T10:03:14.463Z,42.76
2023-05-05T10:05:40.983Z,42.77
2023-05-05T10:08:10.316Z,42.69
2023-05-05T10:10:36.770Z,42.54
2023-05-05T10:13:03.307Z,42.51
2023-05-05T10:15:29.809Z,42.52
2023-05-05T10:18:06.659Z,42.61
2023-05-05T10:20:33.812Z,42.48
2023-05-05T10:23:00.266Z,42.41
2023-05-05T10:25:26.777Z,42.51
2023-05-05T10:27:53.300Z,42.29
2023-05-05T10:30:19.755Z,42.43
2023-05-05T10:32:59.318Z,42.24
2023-05-05T10:35:30.800Z,42.19
2023-05-05T10:37:57.310Z,42.21
2023-05-05T10:40:23.747Z,42.23
2023-05-05T10:42:50.274Z,42.07
2023-05-05T10:45:16.779Z,41.96
2023-05-05T10:47:43.398Z,41.94
2023-05-05T10:50:10.102Z,42.02
2023-05-05T10:52:36.744Z,41.72
2023-05-05T10:55:03.214Z,41.88
2023-05-05T10:57:29.716Z,42.25
2023-05-05T10:59:56.233Z,42.11
2023-05-05T11:02:22.763Z,42.19
2023-05-05T11:04:49.336Z,41.67
2023-05-05T11:07:15.850Z,41.67
2023-05-05T11:09:42.313Z,41.62
2023-05-05T11:12:08.866Z,41.48
2023-05-05T14:13:23.954Z,36.15
2023-05-05T14:15:50.444Z,35.82
2023-05-05T14:18:17.022Z,36.57
2023-05-05T14:20:43.494Z,36.74
2023-05-05T14:23:10.065Z,36.51
2023-05-05T14:25:36.570Z,36.56
2023-05-05T14:28:03.064Z,35.95
2023-05-05T14:30:29.631Z,37.03
2023-05-05T14:32:56.130Z,37.36
2023-05-05T14:35:22.638Z,37.23
2023-05-05T14:37:49.120Z,36.96
2023-05-05T14:40:15.632Z,37.41
2023-05-05T14:42:42.102Z,37.20
2023-05-05T14:45:08.681Z,36.49
2023-05-05T14:47:35.247Z,36.74
2023-05-05T14:50:01.720Z,36.64
2023-05-05T14:52:28.203Z,36.30
2023-05-05T14:54:54.617Z,36.45
2023-05-05T14:57:21.121Z,35.73
2023-05-05T14:59:47.621Z,35.60
2023-05-05T15:02:14.026Z,31.69
2023-05-05T15:04:40.523Z,28.07
2023-05-05T15:07:07.001Z,26.54
2023-05-05T15:09:33.436Z,25.60
2023-05-05T15:11:59.914Z,25.33
2023-05-05T15:14:26.461Z,25.21
2023-05-05T15:16:52.895Z,25.63
2023-05-05T15:19:19.310Z,25.28
2023-05-05T15:21:45.777Z,24.56
2023-05-05T15:24:12.362Z,23.81
2023-05-05T15:26:38.880Z,25.43
2023-05-05T15:29:05.412Z,25.22
2023-05-05T15:31:31.941Z,24.35
2023-05-05T15:33:58.396Z,23.58
2023-05-05T15:36:24.840Z,24.83
2023-05-05T15:38:51.313Z,23.66
2023-05-05T15:41:17.825Z,24.10
2023-05-05T15:43:44.241Z,24.09
2023-05-05T15:46:10.717Z,27.70
2023-05-05T15:48:37.208Z,30.73
2023-05-05T15:51:03.705Z,32.07
2023-05-05T15:53:30.188Z,32.96
2023-05-05T15:55:56.675Z,34.46
2023-05-05T15:58:23.129Z,35.16
2023-05-05T16:00:49.571Z,35.51
2023-05-05T16:03:16.052Z,35.85
2023-05-05T16:05:42.612Z,36.36
2023-05-05T16:08:09.099Z,36.84
2023-05-05T16:10:35.628Z,36.05
2023-05-05T16:13:02.141Z,35.41
2023-05-05T16:15:28.730Z,35.81
2023-05-05T16:17:55.233Z,36.39
2023-05-05T16:20:21.806Z,37.13
2023-05-05T16:22:48.259Z,37.02
2023-05-05T16:25:14.850Z,34.39
2023-05-05T16:27:41.402Z,31.82
2023-05-05T16:30:07.898Z,32.42
2023-05-05T16:32:34.385Z,28.24
2023-05-05T16:35:00.880Z,33.25
2023-05-05T16:37:27.416Z,34.57
2023-05-05T16:39:53.957Z,35.29
2023-05-05T16:42:20.433Z,35.23
2023-05-05T16:44:46.881Z,35.29
2023-05-05T16:47:13.435Z,35.29
2023-05-05T16:49:39.913Z,35.80
2023-05-05T16:52:06.396Z,35.87
2023-05-05T16:54:32.918Z,36.19
2023-05-05T16:56:59.378Z,36.73
2023-05-05T16:59:25.821Z,37.39
2023-05-05T17:01:52.387Z,37.41
2023-05-05T17:04:18.937Z,37.47
2023-05-05T17:06:45.373Z,37.73
2023-05-05T17:09:11.882Z,37.99
2023-05-05T17:11:38.353Z,37.59
2023-05-05T17:14:04.929Z,37.84
2023-05-05T17:16:31.553Z,38.29
2023-05-05T17:18:58.125Z,38.11
2023-05-05T17:21:24.606Z,37.19
2023-05-05T17:23:53.804Z,38.45
2023-05-05T17:26:20.317Z,38.68
2023-05-05T17:28:46.858Z,38.32
2023-05-05T17:31:13.371Z,38.56
2023-05-05T17:33:39.897Z,39.16
2023-05-05T17:36:06.389Z,39.05
2023-05-05T17:38:32.913Z,39.04
2023-05-05T17:40:59.437Z,39.09
2023-05-05T17:43:25.930Z,39.21
2023-05-05T17:45:52.369Z,39.46
2023-05-05T17:48:18.967Z,39.70
2023-05-05T17:50:45.489Z,39.48
2023-05-05T17:53:12.043Z,39.84
2023-05-05T17:55:38.530Z,39.73
2023-05-05T17:58:05.063Z,39.74
2023-05-05T18:00:31.491Z,40.04
2023-05-05T18:02:58.119Z,39.99
2023-05-05T18:05:24.693Z,39.78
2023-05-05T18:07:51.268Z,40.09
2023-05-05T18:10:17.766Z,39.90
2023-05-05T18:12:44.236Z,39.99
2023-05-05T18:15:10.922Z,40.16
2023-05-05T18:17:37.759Z,40.27
2023-05-05T18:20:04.210Z,39.16
2023-05-05T18:22:33.492Z,39.36
2023-05-05T18:25:00.011Z,39.41
2023-05-05T18:27:26.551Z,39.49
2023-05-05T18:29:53.098Z,38.83
2023-05-05T18:32:19.639Z,39.16
2023-05-05T18:34:46.120Z,39.42
2023-05-05T18:37:12.614Z,39.75
2023-05-05T18:39:39.095Z,39.33
2023-05-05T18:42:05.602Z,40.07
2023-05-05T18:44:32.169Z,40.07
2023-05-05T18:46:58.865Z,39.76
2023-05-05T18:49:25.398Z,39.89
2023-05-05T18:51:51.917Z,40.04
2023-05-05T18:54:18.507Z,40.42
2023-05-05T18:56:45.110Z,40.63
2023-05-05T18:59:11.715Z,40.60
2023-05-05T19:01:38.279Z,40.63
2023-05-05T19:04:08.421Z,40.66
2023-05-05T19:06:39.418Z,40.74
2023-05-05T19:09:05.906Z,40.60
2023-05-05T19:11:32.417Z,40.84
2023-05-05T19:13:58.984Z,40.66
2023-05-05T19:16:26.223Z,40.90
2023-05-05T19:18:53.603Z,41.01
2023-05-05T19:21:20.158Z,41.37
2023-05-05T19:23:46.759Z,41.26
2023-05-05T19:26:13.299Z,41.28
